Time;durP1;ratioP1;P1;durP2;ratioP2;P2;SDS_P1;SDS_P2;PMS_P1;PMS_P2;Temp;Humidity;BMP_temperature;BMP_pressure;BME280_temperature;BME280_humidity;BME280_pressure;Samples;Min_cycle;Max_cycle;Signal;HPM_P1;HPM_P2
2024/03/05 00:00:25;;;;;;;28.00;17.30;;;;;;;;;;1810311;78;26339;-74
2024/03/05 00:02:53;;;;;;;28.62;18.23;;;;;;;;;;1792945;79;25449;-71
2024/03/05 00:05:19;;;;;;;27.17;17.65;;;;;;;;;;1761707;79;27283;-71
2024/03/05 00:07:45;;;;;;;28.07;17.70;;;;;;;;;;1766605;79;25794;-70
2024/03/05 00:10:12;;;;;;;34.67;19.42;;;;;;;;;;1785344;78;25599;-71
2024/03/05 00:12:39;;;;;;;26.23;18.20;;;;;;;;;;1803243;78;25670;-76
2024/03/05 00:15:08;;;;;;;27.87;18.10;;;;;;;;;;1786274;78;25790;-71
2024/03/05 00:17:34;;;;;;;27.65;17.17;;;;;;;;;;1805898;78;27310;-71
2024/03/05 00:20:00;;;;;;;27.17;17.67;;;;;;;;;;1805150;78;25462;-72
2024/03/05 00:22:28;;;;;;;24.75;16.27;;;;;;;;;;1801277;77;25516;-72
2024/03/05 00:24:55;;;;;;;29.45;18.35;;;;;;;;;;1794584;78;25601;-72
2024/03/05 00:27:25;;;;;;;26.95;17.90;;;;;;;;;;1803174;78;25424;-72
2024/03/05 00:29:51;;;;;;;26.05;17.57;;;;;;;;;;1793153;78;27294;-70
2024/03/05 00:32:18;;;;;;;28.77;17.80;;;;;;;;;;1800206;78;25855;-71
2024/03/05 00:34:45;;;;;;;28.73;17.67;;;;;;;;;;1784099;78;25443;-72
2024/03/05 00:37:12;;;;;;;30.00;17.65;;;;;;;;;;1807390;78;26290;-71
2024/03/05 00:39:38;;;;;;;26.60;16.80;;;;;;;;;;1799848;78;26036;-71
2024/03/05 00:42:05;;;;;;;30.32;18.17;;;;;;;;;;1797669;78;27194;-72
2024/03/05 00:44:31;;;;;;;27.85;18.67;;;;;;;;;;1804915;78;25660;-71
2024/03/05 00:46:57;;;;;;;26.87;17.27;;;;;;;;;;1800847;78;25271;-71
2024/03/05 00:49:23;;;;;;;28.57;17.98;;;;;;;;;;1779287;79;25886;-72
2024/03/05 00:51:50;;;;;;;28.70;16.93;;;;;;;;;;1773519;79;25440;-72
2024/03/05 00:54:16;;;;;;;30.92;17.62;;;;;;;;;;1766149;79;27348;-72
2024/03/05 00:56:43;;;;;;;27.13;16.80;;;;;;;;;;1802004;78;25654;-71
2024/03/05 00:59:09;;;;;;;28.62;18.05;;;;;;;;;;1799408;78;25404;-73
2024/03/05 01:01:35;;;;;;;28.62;18.40;;;;;;;;;;1813912;77;25770;-71
2024/03/05 01:04:01;;;;;;;28.40;17.55;;;;;;;;;;1784879;78;25436;-76
2024/03/05 01:06:27;;;;;;;29.70;18.07;;;;;;;;;;1788719;78;28026;-71
2024/03/05 01:08:53;;;;;;;30.80;17.40;;;;;;;;;;1787598;78;25378;-77
2024/03/05 01:11:20;;;;;;;28.62;18.27;;;;;;;;;;1788133;78;25791;-71
2024/03/05 01:13:48;;;;;;;31.33;17.98;;;;;;;;;;1805693;78;25616;-70
2024/03/05 01:16:16;;;;;;;32.90;18.25;;;;;;;;;;1801624;78;25435;-72
2024/03/05 01:18:42;;;;;;;31.40;18.07;;;;;;;;;;1808847;78;27461;-71
2024/03/05 01:21:10;;;;;;;29.72;18.02;;;;;;;;;;1775732;78;25549;-71
2024/03/05 01:23:38;;;;;;;28.95;17.95;;;;;;;;;;1781553;78;25492;-70
2024/03/05 01:26:04;;;;;;;29.82;17.70;;;;;;;;;;1807090;78;25881;-71
2024/03/05 01:28:31;;;;;;;33.90;18.75;;;;;;;;;;1793999;78;25665;-70
2024/03/05 01:30:58;;;;;;;27.05;16.80;;;;;;;;;;1793261;77;27388;-70
2024/03/05 01:33:25;;;;;;;27.45;17.62;;;;;;;;;;1785779;79;25476;-71
2024/03/05 01:35:52;;;;;;;30.50;18.02;;;;;;;;;;1797077;78;25584;-71
2024/03/05 01:38:22;;;;;;;29.18;18.00;;;;;;;;;;1791616;78;26034;-70
2024/03/05 01:40:48;;;;;;;30.75;17.52;;;;;;;;;;1804181;77;25719;-71
2024/03/05 01:43:14;;;;;;;26.45;17.32;;;;;;;;;;1794097;79;27577;-70
2024/03/05 01:45:42;;;;;;;27.55;17.07;;;;;;;;;;1787703;79;25550;-71
2024/03/05 01:48:11;;;;;;;27.58;16.80;;;;;;;;;;1793945;78;25808;-71
2024/03/05 01:50:37;;;;;;;28.67;16.73;;;;;;;;;;1779898;78;26313;-71
2024/03/05 01:53:07;;;;;;;29.45;17.45;;;;;;;;;;1789678;78;25553;-71
2024/03/05 01:55:34;;;;;;;30.12;18.20;;;;;;;;;;1792358;78;27305;-72
2024/03/05 01:58:03;;;;;;;30.85;18.73;;;;;;;;;;1772073;79;25550;-70
2024/03/05 02:00:31;;;;;;;29.45;17.55;;;;;;;;;;1765057;79;25583;-70
2024/03/05 02:03:00;;;;;;;27.45;17.07;;;;;;;;;;1762215;78;25709;-70
2024/03/05 02:05:26;;;;;;;27.60;17.55;;;;;;;;;;1753524;80;25612;-78
2024/03/05 02:07:53;;;;;;;27.70;17.12;;;;;;;;;;1773790;79;27303;-69
2024/03/05 02:10:22;;;;;;;28.92;17.57;;;;;;;;;;1762714;79;25827;-72
2024/03/05 02:12:48;;;;;;;25.08;16.17;;;;;;;;;;1747140;80;25789;-69
2024/03/05 02:15:18;;;;;;;29.50;17.73;;;;;;;;;;1766528;79;26628;-69
2024/03/05 02:17:44;;;;;;;30.40;17.10;;;;;;;;;;1750998;79;25629;-68
2024/03/05 02:20:13;;;;;;;28.67;17.20;;;;;;;;;;1754844;79;28408;-68
2024/03/05 02:22:42;;;;;;;26.15;17.02;;;;;;;;;;1762463;79;25584;-68
2024/03/05 02:25:15;;;;;;;25.25;16.87;;;;;;;;;;1769164;80;25866;-67
2024/03/05 02:27:41;;;;;;;28.87;17.45;;;;;;;;;;1762875;79;25957;-68
2024/03/05 02:30:10;;;;;;;29.70;18.25;;;;;;;;;;1763668;79;25453;-67
2024/03/05 02:32:42;;;;;;;30.02;18.55;;;;;;;;;;1759871;79;27361;-69
2024/03/05 02:35:13;;;;;;;27.15;17.23;;;;;;;;;;1768650;79;25477;-68
2024/03/05 02:37:41;;;;;;;29.65;17.75;;;;;;;;;;1767876;79;25788;-69
2024/03/05 02:40:14;;;;;;;27.35;16.62;;;;;;;;;;1761335;79;25623;-69
2024/03/05 02:42:45;;;;;;;30.55;17.82;;;;;;;;;;1766087;79;25800;-69
2024/03/05 02:45:11;;;;;;;27.02;16.48;;;;;;;;;;1746186;80;27240;-70
2024/03/05 02:47:41;;;;;;;29.50;17.50;;;;;;;;;;1762205;79;25629;-73
2024/03/05 02:50:14;;;;;;;29.23;17.57;;;;;;;;;;1762976;79;25810;-73
2024/03/05 02:52:40;;;;;;;23.30;15.60;;;;;;;;;;1755128;79;26352;-68
2024/03/05 02:55:12;;;;;;;28.95;17.45;;;;;;;;;;1758839;79;26077;-69
2024/03/05 02:57:42;;;;;;;28.12;17.25;;;;;;;;;;1747447;79;27310;-69
2024/03/05 03:00:18;;;;;;;27.45;17.67;;;;;;;;;;1778033;79;25584;-69
2024/03/05 03:02:40;;;;;;;27.75;16.48;;;;;;;;;;1768626;79;25437;-69
2024/03/05 03:05:10;;;;;;;29.60;16.70;;;;;;;;;;1746817;80;25763;-69
2024/03/05 03:07:36;;;;;;;26.37;16.77;;;;;;;;;;1757758;80;26005;-69
2024/03/05 03:10:06;;;;;;;28.62;17.07;;;;;;;;;;1757315;79;27474;-69
2024/03/05 03:12:32;;;;;;;;;;;;;;;;;;1757933;79;25588;-69
2024/03/05 03:14:58;;;;;;;27.17;16.87;;;;;;;;;;1775041;79;25629;-70
2024/03/05 03:17:24;;;;;;;27.95;16.17;;;;;;;;;;1771443;79;25896;-70
2024/03/05 03:19:51;;;;;;;30.10;17.10;;;;;;;;;;1772130;79;25769;-71
2024/03/05 03:22:17;;;;;;;31.35;17.70;;;;;;;;;;1771701;79;27331;-70
2024/03/05 03:24:44;;;;;;;26.75;16.80;;;;;;;;;;1765102;79;25549;-69
2024/03/05 03:27:11;;;;;;;33.08;17.50;;;;;;;;;;1729972;81;25734;-69
2024/03/05 03:29:40;;;;;;;29.42;16.52;;;;;;;;;;1760874;80;26304;-69
2024/03/05 03:32:10;;;;;;;30.43;17.57;;;;;;;;;;1760418;79;25630;-70
2024/03/05 03:34:41;;;;;;;29.80;17.52;;;;;;;;;;1760615;80;27326;-69
2024/03/05 03:37:10;;;;;;;30.02;17.90;;;;;;;;;;1752712;80;25590;-69
2024/03/05 03:39:36;;;;;;;30.50;16.60;;;;;;;;;;1747136;81;25886;-74
2024/03/05 03:42:02;;;;;;;30.35;16.82;;;;;;;;;;1755016;79;25505;-71
2024/03/05 03:44:29;;;;;;;27.82;16.17;;;;;;;;;;1758459;80;25608;-70
2024/03/05 03:46:55;;;;;;;32.60;17.27;;;;;;;;;;1754656;80;27667;-70
2024/03/05 03:49:28;;;;;;;34.88;18.17;;;;;;;;;;1765394;80;25854;-70
2024/03/05 03:51:54;;;;;;;30.15;17.30;;;;;;;;;;1755647;80;25400;-71
2024/03/05 03:54:22;;;;;;;30.92;17.35;;;;;;;;;;1750382;80;25906;-70
2024/03/05 03:56:51;;;;;;;29.18;16.93;;;;;;;;;;1764629;79;25404;-70
2024/03/05 03:59:20;;;;;;;31.55;16.82;;;;;;;;;;1745393;80;27331;-70
2024/03/05 04:01:49;;;;;;;32.23;16.87;;;;;;;;;;1758494;79;25947;-69
2024/03/05 04:04:17;;;;;;;30.80;17.12;;;;;;;;;;1772656;79;25482;-69
2024/03/05 04:06:47;;;;;;;35.23;18.07;;;;;;;;;;1762380;79;25793;-69
2024/03/05 04:09:15;;;;;;;33.15;17.45;;;;;;;;;;1764716;79;25843;-69
2024/03/05 04:11:44;;;;;;;29.60;16.45;;;;;;;;;;1771957;79;27860;-70
2024/03/05 04:14:12;;;;;;;31.48;16.67;;;;;;;;;;1757343;79;25643;-70
2024/03/05 04:16:39;;;;;;;31.42;17.32;;;;;;;;;;1766549;79;25820;-69
2024/03/05 04:19:09;;;;;;;33.78;17.90;;;;;;;;;;1777677;79;25628;-70
2024/03/05 04:21:45;;;;;;;35.03;17.37;;;;;;;;;;1768676;79;25560;-70
2024/03/05 04:24:13;;;;;;;32.85;18.02;;;;;;;;;;1764260;80;28661;-70
2024/03/05 04:26:41;;;;;;;32.08;16.85;;;;;;;;;;1751989;79;25641;-69
2024/03/05 04:29:09;;;;;;;34.80;17.67;;;;;;;;;;1767915;79;25767;-70
2024/03/05 04:31:38;;;;;;;31.17;16.20;;;;;;;;;;1767513;79;25595;-69
2024/03/05 04:34:07;;;;;;;31.80;17.20;;;;;;;;;;1748041;80;25556;-70
2024/03/05 04:36:38;;;;;;;34.23;16.77;;;;;;;;;;1772903;79;27343;-71
2024/03/05 04:39:15;;;;;;;28.45;15.90;;;;;;;;;;1765055;80;25764;-64
2024/03/05 04:41:37;;;;;;;29.40;17.07;;;;;;;;;;1750495;80;25792;-64
2024/03/05 04:44:04;;;;;;;29.40;16.45;;;;;;;;;;1772284;79;26199;-63
2024/03/05 04:46:30;;;;;;;29.30;16.75;;;;;;;;;;1751725;80;32617;-64
2024/03/05 04:48:56;;;;;;;28.50;15.80;;;;;;;;;;1751367;79;27377;-64
2024/03/05 04:51:22;;;;;;;31.25;16.37;;;;;;;;;;1779948;79;25802;-64
2024/03/05 04:53:50;;;;;;;31.23;16.52;;;;;;;;;;1758907;80;25724;-65
2024/03/05 04:56:16;;;;;;;30.37;16.42;;;;;;;;;;1769038;79;25817;-65
2024/03/05 04:58:42;;;;;;;28.55;17.23;;;;;;;;;;1748775;79;25501;-65
2024/03/05 05:01:08;;;;;;;28.45;16.23;;;;;;;;;;1773158;79;27530;-64
2024/03/05 05:03:34;;;;;;;28.80;16.07;;;;;;;;;;1749791;80;32981;-64
2024/03/05 05:06:05;;;;;;;30.02;15.75;;;;;;;;;;1769869;79;25483;-65
2024/03/05 05:08:35;;;;;;;27.67;15.80;;;;;;;;;;1763392;79;26330;-64
2024/03/05 05:11:02;;;;;;;26.40;15.78;;;;;;;;;;1770036;79;25446;-63
2024/03/05 05:13:28;;;;;;;24.92;14.80;;;;;;;;;;1781507;80;27857;-63
2024/03/05 05:15:58;;;;;;;29.00;15.63;;;;;;;;;;1741715;82;25863;-64
2024/03/05 05:18:25;;;;;;;27.02;15.53;;;;;;;;;;1763281;80;25666;-64
2024/03/05 05:20:54;;;;;;;30.23;16.27;;;;;;;;;;1748994;79;26145;-64
2024/03/05 05:23:19;;;;;;;29.65;16.32;;;;;;;;;;1760575;79;25805;-64
2024/03/05 05:25:45;;;;;;;30.20;16.52;;;;;;;;;;1760256;79;27406;-64
2024/03/05 05:28:12;;;;;;;28.83;15.13;;;;;;;;;;1750671;80;25382;-63
2024/03/05 05:30:40;;;;;;;27.42;15.75;;;;;;;;;;1767364;80;25503;-63
2024/03/05 05:33:06;;;;;;;27.73;16.70;;;;;;;;;;1767036;79;25480;-63
2024/03/05 05:35:37;;;;;;;24.23;15.25;;;;;;;;;;1763263;79;25740;-63
2024/03/05 05:38:05;;;;;;;28.23;15.20;;;;;;;;;;1749252;80;27863;-63
2024/03/05 05:40:31;;;;;;;24.75;14.73;;;;;;;;;;1759508;80;25805;-64
2024/03/05 05:42:58;;;;;;;29.98;17.00;;;;;;;;;;1756636;80;25874;-64
2024/03/05 05:45:25;;;;;;;27.17;15.43;;;;;;;;;;1748788;79;25869;-64
2024/03/05 05:47:53;;;;;;;26.10;15.43;;;;;;;;;;1766427;79;25799;-64
2024/03/05 05:50:28;;;;;;;28.70;15.63;;;;;;;;;;1762062;79;27708;-65
2024/03/05 05:52:53;;;;;;;27.52;15.75;;;;;;;;;;1756035;80;25520;-65
2024/03/05 05:55:24;;;;;;;25.37;14.40;;;;;;;;;;1772132;79;25821;-65
2024/03/05 05:57:54;;;;;;;28.95;16.23;;;;;;;;;;1759997;80;25675;-64
2024/03/05 06:00:35;;;;;;;27.90;15.75;;;;;;;;;;1760268;80;25446;-64
2024/03/05 06:03:11;;;;;;;24.90;14.78;;;;;;;;;;1768836;79;27355;-64
2024/03/05 06:05:38;;;;;;;27.05;15.10;;;;;;;;;;1762300;79;25394;-64
2024/03/05 06:08:10;;;;;;;28.20;15.65;;;;;;;;;;1723257;81;29899;-65
2024/03/05 06:10:37;;;;;;;28.15;15.68;;;;;;;;;;1757437;80;25701;-65
2024/03/05 06:13:03;;;;;;;25.27;14.73;;;;;;;;;;1745607;80;25449;-65
2024/03/05 06:15:30;;;;;;;25.85;14.75;;;;;;;;;;1763311;79;27293;-65
2024/03/05 06:17:58;;;;;;;25.48;15.05;;;;;;;;;;1746686;80;25839;-64
2024/03/05 06:20:24;;;;;;;29.52;15.58;;;;;;;;;;1769144;79;25487;-65
2024/03/05 06:22:51;;;;;;;26.60;15.25;;;;;;;;;;1748773;80;25790;-65
2024/03/05 06:25:18;;;;;;;26.85;16.25;;;;;;;;;;1746214;80;32509;-65
2024/03/05 06:27:46;;;;;;;27.00;16.07;;;;;;;;;;1755671;80;27659;-65
2024/03/05 06:30:17;;;;;;;26.90;15.32;;;;;;;;;;1752554;80;25636;-65
2024/03/05 06:32:47;;;;;;;23.15;15.68;;;;;;;;;;1765565;79;25854;-65
2024/03/05 06:35:22;;;;;;;23.20;14.38;;;;;;;;;;1768025;79;25964;-65
2024/03/05 06:37:50;;;;;;;26.02;15.65;;;;;;;;;;1774542;79;25888;-65
2024/03/05 06:40:22;;;;;;;23.95;15.13;;;;;;;;;;1762006;79;27341;-65
2024/03/05 06:42:52;;;;;;;29.00;16.00;;;;;;;;;;1768560;79;25729;-66
2024/03/05 06:45:29;;;;;;;26.15;15.55;;;;;;;;;;1772008;79;25506;-65
2024/03/05 06:47:57;;;;;;;23.62;14.73;;;;;;;;;;1762875;80;25776;-65
2024/03/05 06:50:33;;;;;;;26.90;16.10;;;;;;;;;;1757261;80;25454;-65
2024/03/05 06:58:25;;;;;;;29.82;16.57;;;;;;;;;;1778340;79;25755;-65
2024/03/05 07:00:51;;;;;;;26.77;15.93;;;;;;;;;;1769829;79;26686;-64
2024/03/05 07:03:17;;;;;;;26.20;15.55;;;;;;;;;;1745204;80;25704;-64
2024/03/05 07:05:43;;;;;;;27.62;16.07;;;;;;;;;;1762477;79;28008;-65
2024/03/05 07:08:09;;;;;;;33.95;17.25;;;;;;;;;;1767517;79;25661;-66
2024/03/05 07:10:38;;;;;;;30.97;16.17;;;;;;;;;;1770655;79;25459;-65
2024/03/05 07:13:08;;;;;;;30.10;17.20;;;;;;;;;;1758656;79;25707;-65
2024/03/05 07:15:34;;;;;;;28.52;16.62;;;;;;;;;;1748591;80;25559;-64
2024/03/05 07:18:01;;;;;;;30.25;17.65;;;;;;;;;;1765489;79;27676;-65
2024/03/05 07:20:30;;;;;;;27.50;16.23;;;;;;;;;;1756410;79;25571;-65
2024/03/05 07:22:57;;;;;;;30.77;17.12;;;;;;;;;;1756561;79;25896;-65
2024/03/05 07:25:25;;;;;;;30.30;17.07;;;;;;;;;;1750684;80;26194;-65
2024/03/05 07:27:53;;;;;;;30.35;17.55;;;;;;;;;;1754979;80;25459;-65
2024/03/05 07:30:22;;;;;;;28.23;16.93;;;;;;;;;;1752671;80;27286;-65
2024/03/05 07:32:50;;;;;;;28.92;16.75;;;;;;;;;;1763660;79;25796;-66
2024/03/05 07:35:22;;;;;;;29.27;17.07;;;;;;;;;;1766946;79;25546;-64
2024/03/05 07:37:51;;;;;;;30.90;17.40;;;;;;;;;;1774121;79;26793;-64
2024/03/05 07:40:18;;;;;;;30.82;18.17;;;;;;;;;;1756584;79;25398;-64
2024/03/05 07:42:54;;;;;;;28.10;16.32;;;;;;;;;;1772342;79;28031;-64
2024/03/05 07:45:22;;;;;;;31.42;18.25;;;;;;;;;;1755377;79;25748;-65
2024/03/05 07:47:50;;;;;;;31.40;19.15;;;;;;;;;;1753781;80;25539;-64
2024/03/05 07:50:18;;;;;;;32.20;19.02;;;;;;;;;;1760340;79;25674;-66
2024/03/05 07:52:50;;;;;;;36.48;18.92;;;;;;;;;;1758924;80;25804;-66
2024/03/05 07:55:21;;;;;;;33.90;17.80;;;;;;;;;;1775353;79;27701;-65
2024/03/05 07:57:49;;;;;;;36.23;19.65;;;;;;;;;;1771620;79;25811;-65
2024/03/05 08:00:20;;;;;;;35.68;19.00;;;;;;;;;;1772968;79;25794;-66
2024/03/05 08:02:50;;;;;;;32.80;18.98;;;;;;;;;;1773789;79;25584;-66
2024/03/05 08:05:21;;;;;;;36.10;19.20;;;;;;;;;;1756708;80;25476;-66
2024/03/05 08:07:48;;;;;;;31.07;17.82;;;;;;;;;;1752206;80;27416;-67
2024/03/05 08:10:16;;;;;;;31.40;18.48;;;;;;;;;;1747847;80;25894;-65
2024/03/05 08:12:48;;;;;;;101.65;63.68;;;;;;;;;;1754321;79;25353;-65
2024/03/05 08:15:17;;;;;;;106.72;68.47;;;;;;;;;;1757558;79;26291;-66
2024/03/05 08:17:47;;;;;;;45.92;25.70;;;;;;;;;;1750590;79;25394;-69
2024/03/05 08:20:26;;;;;;;32.53;19.82;;;;;;;;;;1762834;80;27477;-66
2024/03/05 08:22:50;;;;;;;33.48;18.80;;;;;;;;;;1756311;79;25486;-65
2024/03/05 08:25:20;;;;;;;30.75;19.02;;;;;;;;;;1770525;79;25631;-64
2024/03/05 08:27:54;;;;;;;31.80;18.23;;;;;;;;;;1767052;79;26044;-65
2024/03/05 08:30:23;;;;;;;30.77;18.27;;;;;;;;;;1761157;80;25898;-64
2024/03/05 08:32:53;;;;;;;30.97;18.00;;;;;;;;;;1754501;81;27314;-66
2024/03/05 08:35:22;;;;;;;31.25;19.00;;;;;;;;;;1762192;79;25752;-66
2024/03/05 08:37:50;;;;;;;30.88;18.65;;;;;;;;;;1766720;79;25518;-66
2024/03/05 08:40:19;;;;;;;29.37;18.00;;;;;;;;;;1750336;80;26375;-67
2024/03/05 08:42:47;;;;;;;33.42;19.30;;;;;;;;;;1754948;80;25777;-67
2024/03/05 08:45:19;;;;;;;30.08;18.07;;;;;;;;;;1763078;79;27316;-67
2024/03/05 08:47:48;;;;;;;27.27;18.20;;;;;;;;;;1758315;80;25515;-67
2024/03/05 08:50:18;;;;;;;26.87;18.35;;;;;;;;;;1744821;80;25341;-67
2024/03/05 08:52:45;;;;;;;34.38;18.60;;;;;;;;;;1778476;79;26703;-67
2024/03/05 08:55:14;;;;;;;27.95;18.42;;;;;;;;;;1760735;80;25509;-68
2024/03/05 08:57:41;;;;;;;31.68;18.30;;;;;;;;;;1772185;80;27324;-66
2024/03/05 09:00:08;;;;;;;26.40;17.70;;;;;;;;;;1777322;79;25768;-67
2024/03/05 09:02:34;;;;;;;27.50;17.87;;;;;;;;;;1768478;79;25625;-68
2024/03/05 09:05:09;;;;;;;25.15;16.32;;;;;;;;;;1772312;79;25960;-67
2024/03/05 09:07:30;;;;;;;25.72;16.05;;;;;;;;;;1761416;80;25563;-67
2024/03/05 09:09:57;;;;;;;49.93;28.85;;;;;;;;;;1755218;80;27270;-66
2024/03/05 09:12:24;;;;;;;32.48;20.10;;;;;;;;;;1756333;79;25680;-65
2024/03/05 09:14:52;;;;;;;28.35;17.80;;;;;;;;;;1758000;79;25622;-63
2024/03/05 09:17:19;;;;;;;24.87;15.65;;;;;;;;;;1758912;79;25977;-67
2024/03/05 09:19:45;;;;;;;24.95;14.58;;;;;;;;;;1759123;79;32177;-67
2024/03/05 09:22:15;;;;;;;24.18;15.35;;;;;;;;;;1760117;79;28005;-66
2024/03/05 09:24:39;;;;;;;24.63;16.30;;;;;;;;;;1765184;79;25692;-67
2024/03/05 09:27:05;;;;;;;24.52;14.73;;;;;;;;;;1737415;80;25920;-67
2024/03/05 09:29:33;;;;;;;29.55;16.87;;;;;;;;;;1738096;81;26031;-68
2024/03/05 09:32:00;;;;;;;25.25;15.25;;;;;;;;;;1725559;81;32465;-67
2024/03/05 09:34:27;;;;;;;23.95;15.80;;;;;;;;;;1731194;81;27255;-67
2024/03/05 09:36:55;;;;;;;25.43;16.40;;;;;;;;;;1733074;81;25482;-68
2024/03/05 09:39:21;;;;;;;27.30;15.53;;;;;;;;;;1731318;81;25487;-67
2024/03/05 09:41:49;;;;;;;26.07;16.00;;;;;;;;;;1741947;81;34786;-68
2024/03/05 09:44:18;;;;;;;24.77;14.63;;;;;;;;;;1729927;81;25527;-67
2024/03/05 09:46:45;;;;;;;23.87;14.78;;;;;;;;;;1734241;81;28448;-67
2024/03/05 09:49:21;;;;;;;29.48;15.48;;;;;;;;;;1747877;81;25621;-67
2024/03/05 09:51:49;;;;;;;24.65;16.07;;;;;;;;;;1750389;81;25692;-67
2024/03/05 09:54:15;;;;;;;24.37;16.32;;;;;;;;;;1722797;81;25693;-66
2024/03/05 09:56:48;;;;;;;28.40;16.55;;;;;;;;;;1746073;81;25907;-67
2024/03/05 09:59:20;;;;;;;25.02;15.70;;;;;;;;;;1739636;81;28192;-68
2024/03/05 10:01:47;;;;;;;24.70;15.80;;;;;;;;;;1733894;81;25931;-69
2024/03/05 10:04:18;;;;;;;24.47;14.28;;;;;;;;;;1734249;81;25682;-68
2024/03/05 10:06:49;;;;;;;27.05;17.90;;;;;;;;;;1745475;81;25621;-66
2024/03/05 10:09:18;;;;;;;49.40;33.38;;;;;;;;;;1751733;81;25518;-66
2024/03/05 10:11:44;;;;;;;28.32;18.55;;;;;;;;;;1748114;81;27995;-65
2024/03/05 10:14:12;;;;;;;25.43;15.30;;;;;;;;;;1703317;82;25740;-64
2024/03/05 10:16:40;;;;;;;26.27;15.30;;;;;;;;;;1728037;81;25869;-68
2024/03/05 10:19:15;;;;;;;21.68;14.35;;;;;;;;;;1751333;81;25898;-67
2024/03/05 10:21:47;;;;;;;23.50;14.25;;;;;;;;;;1731500;81;25816;-64
2024/03/05 10:24:13;;;;;;;22.77;14.75;;;;;;;;;;1730700;81;27670;-67
2024/03/05 10:26:41;;;;;;;22.45;15.38;;;;;;;;;;1734169;81;25555;-68
2024/03/05 10:29:08;;;;;;;23.15;14.58;;;;;;;;;;1722615;81;25798;-68
2024/03/05 10:31:47;;;;;;;26.33;16.62;;;;;;;;;;1744391;81;25596;-67
2024/03/05 10:34:14;;;;;;;25.55;15.30;;;;;;;;;;1728975;81;25847;-67
2024/03/05 10:36:45;;;;;;;23.42;14.33;;;;;;;;;;1724544;80;27949;-67
2024/03/05 10:39:12;;;;;;;24.70;16.17;;;;;;;;;;1722089;81;25576;-67
2024/03/05 10:41:41;;;;;;;26.73;16.15;;;;;;;;;;1731227;81;25521;-68
2024/03/05 10:44:10;;;;;;;25.27;15.98;;;;;;;;;;1731878;81;25998;-66
2024/03/05 10:46:40;;;;;;;24.25;15.08;;;;;;;;;;1725920;81;25824;-67
2024/03/05 10:49:08;;;;;;;25.05;15.20;;;;;;;;;;1734324;81;26996;-67
2024/03/05 10:51:39;;;;;;;21.52;14.63;;;;;;;;;;1722516;81;25473;-66
2024/03/05 10:54:05;;;;;;;21.40;14.55;;;;;;;;;;1728844;81;25867;-67
2024/03/05 10:56:37;;;;;;;23.50;14.73;;;;;;;;;;1731272;81;26398;-67
2024/03/05 11:01:43;;;;;;;23.83;15.05;;;;;;;;;;1689350;83;27398;-69
2024/03/05 11:04:22;;;;;;;21.30;14.13;;;;;;;;;;1679469;84;25897;-69
2024/03/05 11:06:59;;;;;;;25.32;14.58;;;;;;;;;;1687129;83;25624;-68
2024/03/05 11:09:23;;;;;;;21.25;13.83;;;;;;;;;;1684191;83;25651;-67
2024/03/05 11:12:01;;;;;;;22.70;14.28;;;;;;;;;;1682673;84;25598;-68
2024/03/05 11:14:29;;;;;;;25.92;15.10;;;;;;;;;;1681078;84;27687;-68
2024/03/05 11:16:59;;;;;;;24.77;16.12;;;;;;;;;;1682575;84;25521;-68
2024/03/05 11:19:29;;;;;;;23.55;14.98;;;;;;;;;;1683154;83;25852;-68
2024/03/05 11:21:53;;;;;;;27.60;14.60;;;;;;;;;;1680413;84;26023;-68
2024/03/05 11:24:21;;;;;;;22.70;14.05;;;;;;;;;;1683449;84;25650;-68
2024/03/05 11:26:49;;;;;;;22.75;14.25;;;;;;;;;;1684044;84;27564;-68
2024/03/05 11:29:27;;;;;;;23.67;14.45;;;;;;;;;;1654127;84;25541;-67
2024/03/05 11:31:53;;;;;;;24.10;13.25;;;;;;;;;;1678314;84;25491;-68
2024/03/05 11:34:20;;;;;;;23.47;15.93;;;;;;;;;;1676490;85;26244;-68
2024/03/05 11:37:06;;;;;;;22.45;14.83;;;;;;;;;;1681152;84;25622;-68
2024/03/05 11:39:33;;;;;;;27.22;15.35;;;;;;;;;;1729469;81;27355;-68
2024/03/05 11:42:00;;;;;;;22.02;13.72;;;;;;;;;;1719229;81;25883;-68
2024/03/05 11:44:37;;;;;;;21.60;14.45;;;;;;;;;;1729994;81;25433;-68
2024/03/05 11:47:06;;;;;;;35.40;21.07;;;;;;;;;;1747702;80;25928;-67
2024/03/05 11:49:37;;;;;;;82.80;50.92;;;;;;;;;;1722808;82;25366;-69
2024/03/05 11:52:07;;;;;;;32.17;20.90;;;;;;;;;;1747560;81;27332;-67
2024/03/05 11:54:35;;;;;;;20.97;14.05;;;;;;;;;;1703318;82;25567;-68
2024/03/05 11:57:05;;;;;;;23.15;14.80;;;;;;;;;;1731352;81;25516;-68
2024/03/05 11:59:38;;;;;;;21.87;14.68;;;;;;;;;;1726608;80;26297;-59
2024/03/05 12:02:15;;;;;;;23.90;15.00;;;;;;;;;;1723449;81;25644;-58
2024/03/05 12:04:44;;;;;;;23.90;15.40;;;;;;;;;;1744499;81;27312;-58
2024/03/05 12:07:14;;;;;;;21.23;14.33;;;;;;;;;;1736964;81;25594;-58
2024/03/05 12:09:40;;;;;;;24.65;14.73;;;;;;;;;;1742559;81;35027;-56
2024/03/05 12:12:12;;;;;;;21.60;14.40;;;;;;;;;;1728957;81;26246;-57
2024/03/05 12:14:39;;;;;;;25.57;14.07;;;;;;;;;;1737084;81;25558;-57
2024/03/05 12:17:08;;;;;;;20.02;13.95;;;;;;;;;;1733972;81;27688;-58
2024/03/05 12:19:37;;;;;;;21.50;13.40;;;;;;;;;;1726600;81;25763;-57
2024/03/05 12:22:09;;;;;;;20.97;12.85;;;;;;;;;;1714153;82;25775;-58
2024/03/05 12:24:36;;;;;;;22.85;15.30;;;;;;;;;;1719468;82;25703;-54
2024/03/05 12:27:04;;;;;;;21.30;13.43;;;;;;;;;;1734672;81;25624;-55
2024/03/05 12:29:37;;;;;;;22.07;13.18;;;;;;;;;;1722803;81;27562;-58
2024/03/05 12:32:11;;;;;;;23.07;12.90;;;;;;;;;;1724362;81;25562;-57
2024/03/05 12:34:43;;;;;;;20.37;12.55;;;;;;;;;;1741155;81;25879;-58
2024/03/05 12:37:12;;;;;;;21.10;13.22;;;;;;;;;;1732744;81;26441;-55
2024/03/05 12:39:40;;;;;;;;;;;;;;;;;;1718380;81;25554;-58
2024/03/05 12:42:13;;;;;;;18.85;12.45;;;;;;;;;;1734913;81;27404;-59
2024/03/05 12:44:40;;;;;;;21.02;12.35;;;;;;;;;;1718368;81;25608;-59
2024/03/05 12:47:11;;;;;;;18.27;11.73;;;;;;;;;;1727046;81;25740;-59
2024/03/05 12:49:44;;;;;;;18.65;12.60;;;;;;;;;;1732395;81;26332;-57
2024/03/05 12:52:13;;;;;;;36.63;20.68;;;;;;;;;;1729015;81;25480;-67
2024/03/05 12:54:40;;;;;;;30.08;18.20;;;;;;;;;;1743463;81;27734;-68
2024/03/05 12:57:11;;;;;;;38.90;24.57;;;;;;;;;;1731598;81;25738;-68
2024/03/05 12:59:38;;;;;;;23.47;13.88;;;;;;;;;;1727968;81;25768;-59
2024/03/05 13:02:07;;;;;;;20.52;13.70;;;;;;;;;;1746732;81;35062;-57
2024/03/05 13:04:34;;;;;;;23.07;13.95;;;;;;;;;;1723069;81;25630;-59
2024/03/05 13:07:00;;;;;;;22.95;13.58;;;;;;;;;;1729248;81;28336;-60
2024/03/05 13:09:26;;;;;;;27.22;16.57;;;;;;;;;;1738430;81;33152;-58
2024/03/05 13:11:54;;;;;;;22.32;15.03;;;;;;;;;;1739165;81;29689;-56
2024/03/05 13:14:20;;;;;;;27.37;16.32;;;;;;;;;;1742692;81;25693;-58
2024/03/05 13:16:46;;;;;;;24.43;15.20;;;;;;;;;;1734678;81;25783;-58
2024/03/05 13:19:14;;;;;;;26.55;16.70;;;;;;;;;;1730100;81;28108;-57
2024/03/05 13:21:42;;;;;;;25.20;15.75;;;;;;;;;;1736552;81;25695;-56
2024/03/05 13:24:12;;;;;;;25.12;16.25;;;;;;;;;;1749572;81;25795;-58
2024/03/05 13:26:43;;;;;;;22.00;15.08;;;;;;;;;;1732584;81;25974;-62
2024/03/05 13:29:11;;;;;;;23.22;15.32;;;;;;;;;;1727697;81;25640;-58
2024/03/05 13:31:38;;;;;;;24.90;15.18;;;;;;;;;;1735227;80;27668;-58
2024/03/05 13:34:09;;;;;;;27.45;16.20;;;;;;;;;;1728008;81;25620;-58
2024/03/05 13:36:35;;;;;;;27.67;17.65;;;;;;;;;;1738792;81;25800;-59
2024/03/05 13:39:08;;;;;;;28.55;18.17;;;;;;;;;;1743715;81;25663;-60
2024/03/05 13:41:40;;;;;;;27.45;17.73;;;;;;;;;;1746466;81;25569;-59
2024/03/05 13:44:09;;;;;;;29.18;18.15;;;;;;;;;;1726266;81;27254;-66
2024/03/05 13:46:39;;;;;;;72.90;44.40;;;;;;;;;;1739493;81;25547;-65
2024/03/05 13:49:07;;;;;;;47.83;29.35;;;;;;;;;;1749247;81;25912;-66
2024/03/05 13:51:33;;;;;;;28.45;18.55;;;;;;;;;;1732216;81;26352;-68
2024/03/05 13:54:02;;;;;;;30.57;18.80;;;;;;;;;;1722657;81;25413;-66
2024/03/05 13:56:28;;;;;;;28.15;17.05;;;;;;;;;;1719012;81;27403;-67
2024/03/05 13:58:57;;;;;;;25.77;18.57;;;;;;;;;;1737154;81;25748;-66
2024/03/05 14:01:23;;;;;;;26.52;17.95;;;;;;;;;;1749481;81;25391;-67
2024/03/05 14:03:54;;;;;;;33.42;18.95;;;;;;;;;;1718297;81;25552;-68
2024/03/05 14:06:19;;;;;;;30.27;18.62;;;;;;;;;;1726265;81;25810;-66
2024/03/05 14:08:47;;;;;;;30.25;16.77;;;;;;;;;;1737741;81;28151;-58
2024/03/05 14:11:15;;;;;;;28.83;18.17;;;;;;;;;;1739810;81;25623;-57
2024/03/05 14:13:44;;;;;;;27.50;17.87;;;;;;;;;;1721482;82;25821;-60
2024/03/05 14:16:13;;;;;;;29.35;17.73;;;;;;;;;;1731684;81;25979;-60
2024/03/05 14:18:43;;;;;;;26.90;17.25;;;;;;;;;;1707126;82;25645;-60
2024/03/05 14:21:09;;;;;;;30.88;17.70;;;;;;;;;;1735136;81;28474;-57
2024/03/05 14:23:39;;;;;;;28.98;17.77;;;;;;;;;;1722920;81;25696;-57
2024/03/05 14:26:08;;;;;;;27.93;17.55;;;;;;;;;;1739386;81;25793;-56
2024/03/05 14:28:36;;;;;;;28.77;17.55;;;;;;;;;;1728201;81;26693;-57
2024/03/05 14:31:03;;;;;;;29.63;18.92;;;;;;;;;;1735643;81;25591;-57
2024/03/05 14:33:33;;;;;;;30.08;18.27;;;;;;;;;;1736752;81;27962;-57